Time;durP1;ratioP1;P1;durP2;ratioP2;P2;SDS_P1;SDS_P2;PMS_P1;PMS_P2;Temp;Humidity;BMP_temperature;BMP_pressure;BME280_temperature;BME280_humidity;BME280_pressure;Samples;Min_cycle;Max_cycle;Signal;HPM_P1;HPM_P2
2021/08/16 00:01:19;;;;;;;9.20;3.20;;;24.30;81.40;;;;;;12060174;28;20044;-84
2021/08/16 00:07:07;;;;;;;7.75;3.25;;;24.30;81.80;;;;;;12068780;28;20044;-84
2021/08/16 00:12:57;;;;;;;8.63;3.28;;;24.50;81.70;;;;;;12108191;28;20680;-84
2021/08/16 00:18:47;;;;;;;11.13;3.10;;;24.50;80.80;;;;;;12073910;28;20064;-84
2021/08/16 00:24:36;;;;;;;13.82;3.00;;;24.20;79.30;;;;;;12056309;28;20047;-83
2021/08/16 00:30:24;;;;;;;13.18;3.28;;;24.20;79.50;;;;;;12057188;28;20049;-84
2021/08/16 07:56:50;;;;;;;3.92;1.50;;;20.80;92.40;;;;;;12059522;27;20474;-59
2021/08/16 08:02:41;;;;;;;2.15;0.93;;;21.00;92.40;;;;;;12067688;28;20044;-59
2021/08/16 08:08:28;;;;;;;4.63;1.27;;;21.70;91.70;;;;;;12072379;28;20051;-62
2021/08/16 08:14:17;;;;;;;5.00;1.13;;;22.20;90.90;;;;;;12067085;28;20120;-59
2021/08/16 08:20:06;;;;;;;4.93;1.40;;;22.50;90.20;;;;;;12064273;28;20503;-59
2021/08/16 08:25:53;;;;;;;2.95;1.23;;;22.90;89.00;;;;;;12074880;28;20056;-59
2021/08/16 08:31:42;;;;;;;5.70;1.35;;;22.80;89.30;;;;;;12106004;28;20113;-59
2021/08/16 08:37:29;;;;;;;3.67;1.30;;;22.90;89.00;;;;;;12105113;28;20450;-59
2021/08/16 08:43:16;;;;;;;2.63;1.08;;;23.00;89.80;;;;;;12105446;28;20055;-59
2021/08/16 08:49:05;;;;;;;4.10;1.30;;;23.20;88.50;;;;;;12105234;28;20036;-60
2021/08/16 08:54:55;;;;;;;7.15;1.23;;;23.10;88.40;;;;;;12076659;28;20060;-60
2021/08/16 09:00:42;;;;;;;2.00;1.00;;;23.00;88.60;;;;;;12065434;28;20048;-60
2021/08/16 09:06:31;;;;;;;6.05;1.17;;;22.70;89.20;;;;;;12042856;28;20047;-60
2021/08/16 09:12:28;;;;;;;3.20;1.02;;;22.90;89.30;;;;;;12032907;28;20137;-57
2021/08/16 09:18:15;;;;;;;4.95;1.20;;;23.10;90.10;;;;;;12044634;28;20503;-60
2021/08/16 09:24:04;;;;;;;2.83;1.30;;;22.70;90.20;;;;;;12070661;28;20507;-60
2021/08/16 09:29:52;;;;;;;1.50;0.93;;;22.70;90.30;;;;;;12068458;28;20089;-59
2021/08/16 09:35:50;;;;;;;4.15;1.17;;;22.60;90.40;;;;;;12070178;28;20496;-60
2021/08/16 09:41:38;;;;;;;3.67;1.27;;;22.90;90.50;;;;;;12069776;28;20041;-60
2021/08/16 09:47:25;;;;;;;3.80;1.30;;;22.80;90.50;;;;;;12069299;28;20058;-58
2021/08/16 09:53:13;;;;;;;3.17;1.30;;;23.00;90.50;;;;;;12053605;28;20044;-59
2021/08/16 09:59:19;;;;;;;3.40;1.65;;;23.30;89.80;;;;;;12054882;28;20071;-59
2021/08/16 10:05:07;;;;;;;2.83;1.75;;;23.50;88.90;;;;;;12069803;28;20051;-59
2021/08/16 10:10:55;;;;;;;2.17;1.35;;;23.20;87.90;;;;;;12068110;28;20064;-59
2021/08/16 10:16:48;;;;;;;6.18;2.40;;;23.60;87.30;;;;;;12067586;28;20193;-59
2021/08/16 10:22:38;;;;;;;2.93;2.60;;;23.00;87.90;;;;;;12068605;28;20125;-58
2021/08/16 10:28:26;;;;;;;2.50;2.05;;;22.50;89.70;;;;;;12068461;28;20044;-59
2021/08/16 10:34:25;;;;;;;3.70;1.95;;;22.70;90.20;;;;;;12067497;28;20044;-59
2021/08/16 10:40:24;;;;;;;2.55;1.80;;;22.80;89.30;;;;;;12067162;28;20067;-59
2021/08/16 10:46:21;;;;;;;1.55;1.45;;;23.00;88.60;;;;;;12067243;28;20056;-59
2021/08/16 10:52:21;;;;;;;6.57;1.80;;;23.20;82.50;;;;;;12057766;28;20132;-58
2021/08/16 10:58:08;;;;;;;2.33;1.45;;;23.10;83.20;;;;;;12038311;28;20520;-58
2021/08/16 11:03:56;;;;;;;2.35;1.58;;;23.10;84.50;;;;;;12066892;28;20036;-59
2021/08/16 11:09:55;;;;;;;5.35;1.67;;;22.70;85.30;;;;;;12065517;28;20057;-63
2021/08/16 11:15:45;;;;;;;1.92;1.67;;;23.10;85.60;;;;;;12065849;28;20507;-62
2021/08/16 11:21:32;;;;;;;2.97;2.00;;;22.90;84.00;;;;;;12059963;28;20041;-71
2021/08/16 11:27:22;;;;;;;5.50;2.20;;;22.90;82.40;;;;;;12065940;28;20032;-62
2021/08/16 11:33:09;;;;;;;5.40;2.45;;;22.90;82.40;;;;;;12065230;28;20044;-62
2021/08/16 11:38:56;;;;;;;5.60;3.17;;;22.70;81.90;;;;;;12065710;28;20048;-62
2021/08/16 11:44:44;;;;;;;7.85;2.92;;;22.90;81.40;;;;;;12065895;28;20052;-62
2021/08/16 11:50:32;;;;;;;6.85;3.58;;;23.10;81.10;;;;;;12065696;28;20427;-62
2021/08/16 11:56:18;;;;;;;6.47;3.60;;;23.10;80.40;;;;;;12043350;28;20048;-62
2021/08/16 12:02:07;;;;;;;9.27;4.47;;;23.20;79.40;;;;;;12065583;28;20040;-64
2021/08/16 12:07:55;;;;;;;8.63;5.28;;;22.90;78.80;;;;;;12064410;28;20044;-64
2021/08/16 12:13:42;;;;;;;9.18;5.43;;;22.70;77.40;;;;;;12064586;28;20051;-63
2021/08/16 12:19:31;;;;;;;9.68;5.57;;;22.70;76.10;;;;;;12064333;28;20048;-63
2021/08/16 12:25:18;;;;;;;10.05;6.53;;;23.10;76.00;;;;;;12064594;28;20044;-63
2021/08/16 12:31:15;;;;;;;15.05;9.02;;;23.30;73.80;;;;;;12061951;28;20057;-64
2021/08/16 12:37:04;;;;;;;17.08;9.38;;;23.30;73.50;;;;;;12060360;28;20132;-64
2021/08/16 12:42:56;;;;;;;16.33;8.80;;;23.30;74.10;;;;;;12069161;28;20428;-64
2021/08/16 12:48:44;;;;;;;14.97;9.40;;;23.70;73.00;;;;;;12072467;28;20537;-64
2021/08/16 12:54:34;;;;;;;21.95;10.88;;;24.40;71.20;;;;;;12043509;28;20113;-64
2021/08/16 13:00:21;;;;;;;21.40;12.90;;;24.10;71.20;;;;;;12032070;28;20083;-64
2021/08/16 13:06:08;;;;;;;20.48;12.88;;;23.60;69.70;;;;;;12030618;28;20504;-63
2021/08/16 13:12:11;;;;;;;23.50;13.38;;;23.30;71.00;;;;;;12032977;28;20067;-63
2021/08/16 13:17:58;;;;;;;22.65;14.90;;;23.80;69.80;;;;;;12066153;28;20060;-63
2021/08/16 13:23:46;;;;;;;25.73;15.05;;;24.30;69.30;;;;;;12071380;28;20052;-63
2021/08/16 13:29:36;;;;;;;21.83;14.88;;;24.30;67.30;;;;;;12071262;28;20051;-63
2021/08/16 13:35:24;;;;;;;25.38;15.55;;;24.40;66.20;;;;;;12071778;28;21325;-63
2021/08/16 13:41:12;;;;;;;27.55;16.75;;;24.20;66.80;;;;;;12070204;28;20063;-63
2021/08/16 13:47:00;;;;;;;29.38;17.38;;;24.20;66.00;;;;;;12069436;28;20063;-63
2021/08/16 13:52:47;;;;;;;32.00;17.20;;;24.40;65.30;;;;;;12054726;28;20044;-63
2021/08/16 13:58:35;;;;;;;27.05;17.33;;;24.40;65.20;;;;;;12034193;28;20067;-63
2021/08/16 14:04:23;;;;;;;31.45;18.25;;;25.00;64.00;;;;;;12028918;28;20049;-63
2021/08/16 14:10:12;;;;;;;26.25;18.42;;;25.30;62.70;;;;;;12032363;28;20055;-63
2021/08/16 14:16:01;;;;;;;27.23;17.77;;;25.10;62.40;;;;;;12025721;28;20040;-63
2021/08/16 14:21:49;;;;;;;28.17;17.88;;;25.40;60.70;;;;;;12029120;28;20049;-64
2021/08/16 14:27:36;;;;;;;31.98;18.00;;;24.80;62.30;;;;;;12045979;28;20049;-62
2021/08/16 14:33:23;;;;;;;27.75;17.08;;;24.60;63.10;;;;;;12067928;28;20380;-62
2021/08/16 14:39:11;;;;;;;27.65;16.88;;;24.80;63.20;;;;;;12067770;28;20056;-62
2021/08/16 14:44:58;;;;;;;28.95;17.38;;;24.80;62.20;;;;;;12067232;28;20083;-62
2021/08/16 14:50:45;;;;;;;26.73;16.77;;;24.60;62.80;;;;;;12066065;28;20036;-63
2021/08/16 14:56:34;;;;;;;24.67;16.30;;;24.90;62.40;;;;;;12026222;28;20071;-62
2021/08/16 15:02:49;;;;;;;25.42;16.20;;;24.70;60.80;;;;;;12055717;28;20044;-62
2021/08/16 15:08:37;;;;;;;26.23;17.48;;;24.40;61.20;;;;;;12066402;28;20044;-63
2021/08/16 15:14:25;;;;;;;29.10;16.92;;;24.10;63.70;;;;;;12066189;28;20169;-62
2021/08/16 15:20:13;;;;;;;31.85;18.10;;;24.00;64.30;;;;;;12065773;28;20057;-62
2021/08/16 15:26:00;;;;;;;30.13;17.83;;;24.40;62.90;;;;;;12065832;28;20044;-62
2021/08/16 15:31:49;;;;;;;28.63;17.58;;;24.50;61.50;;;;;;12065444;28;20452;-62
2021/08/16 15:37:39;;;;;;;31.67;18.08;;;24.30;62.30;;;;;;12065849;28;20070;-62
2021/08/16 15:43:27;;;;;;;31.38;18.58;;;24.00;62.40;;;;;;12065571;28;20063;-62
2021/08/16 15:49:15;;;;;;;30.67;18.60;;;24.30;62.40;;;;;;12065607;28;20041;-63
2021/08/16 15:55:02;;;;;;;32.50;17.88;;;24.00;63.00;;;;;;12034715;28;20048;-63
2021/08/16 16:00:48;;;;;;;29.42;18.38;;;23.80;62.70;;;;;;12027043;28;20052;-63
2021/08/16 16:06:37;;;;;;;34.25;17.38;;;23.80;64.10;;;;;;12047328;28;20045;-63
2021/08/16 16:12:24;;;;;;;31.73;18.10;;;23.90;63.80;;;;;;12065209;28;20055;-63
2021/08/16 16:18:12;;;;;;;33.72;18.13;;;24.30;64.10;;;;;;12072175;28;20052;-64
2021/08/16 16:24:00;;;;;;;28.88;17.10;;;24.40;62.70;;;;;;12073719;28;20052;-65
2021/08/16 16:29:47;;;;;;;28.35;16.75;;;26.70;59.40;;;;;;12073456;28;20059;-63
2021/08/16 16:35:34;;;;;;;22.25;14.88;;;28.40;54.70;;;;;;12073247;28;20033;-63
2021/08/16 16:41:23;;;;;;;26.23;14.05;;;28.10;55.30;;;;;;12072637;28;20053;-61
2021/08/16 16:47:10;;;;;;;22.58;14.00;;;28.20;54.30;;;;;;12072752;28;20546;-61
2021/08/16 16:52:57;;;;;;;26.52;14.55;;;27.40;56.50;;;;;;12059403;28;20054;-61
2021/08/16 16:58:45;;;;;;;20.67;14.00;;;27.10;57.30;;;;;;12036281;28;20055;-61
2021/08/16 17:04:32;;;;;;;23.83;14.30;;;26.20;59.10;;;;;;12035109;28;20052;-60
2021/08/16 17:10:19;;;;;;;22.40;13.45;;;25.40;60.40;;;;;;12039413;28;20056;-61
2021/08/16 17:16:07;;;;;;;25.05;13.45;;;25.60;60.30;;;;;;12070424;28;20044;-61
2021/08/16 17:21:54;;;;;;;21.73;13.38;;;26.60;58.50;;;;;;12070416;28;20149;-62
2021/08/16 17:27:41;;;;;;;23.10;12.73;;;27.70;56.50;;;;;;12069945;28;20056;-61
2021/08/16 17:33:30;;;;;;;22.92;12.15;;;27.10;57.00;;;;;;12070504;28;20040;-61
2021/08/16 17:39:17;;;;;;;18.27;11.68;;;26.90;57.80;;;;;;12070608;28;20051;-61
2021/08/16 17:45:04;;;;;;;18.92;11.90;;;27.10;57.00;;;;;;12070889;28;20056;-61
2021/08/16 17:50:53;;;;;;;24.70;12.77;;;26.20;57.90;;;;;;12066822;28;20524;-61
2021/08/16 17:56:40;;;;;;;22.92;12.73;;;25.30;59.10;;;;;;12028865;28;20516;-60
2021/08/16 18:02:31;;;;;;;23.25;13.52;;;24.80;60.70;;;;;;12016225;28;21222;-59
2021/08/16 18:15:02;;;;;;;22.73;13.70;;;23.60;64.10;;;;;;12065424;28;20040;-60
2021/08/16 18:20:49;;;;;;;24.90;14.45;;;23.50;65.20;;;;;;12067075;28;20040;-60
2021/08/16 18:26:36;;;;;;;27.40;14.73;;;23.30;65.90;;;;;;12067896;28;20053;-61
2021/08/16 18:32:25;;;;;;;30.70;15.48;;;23.40;66.90;;;;;;12068009;28;20085;-60
2021/08/16 18:38:12;;;;;;;27.08;15.88;;;23.30;66.70;;;;;;12065654;28;20533;-61
2021/08/16 18:43:59;;;;;;;31.50;16.33;;;23.20;67.30;;;;;;12067290;28;20040;-61
2021/08/16 18:49:48;;;;;;;28.40;17.25;;;23.20;67.40;;;;;;12067785;28;20052;-61
2021/08/16 18:55:34;;;;;;;29.98;17.90;;;23.10;67.90;;;;;;12053531;28;20049;-61
2021/08/16 19:01:21;;;;;;;30.50;16.77;;;23.10;68.20;;;;;;12067875;28;20036;-61
2021/08/16 19:07:10;;;;;;;32.33;18.70;;;22.90;67.80;;;;;;12066041;28;20048;-62
2021/08/16 19:12:58;;;;;;;33.50;18.95;;;22.80;69.10;;;;;;12066244;28;20047;-62
2021/08/16 19:18:46;;;;;;;37.65;19.75;;;22.60;68.80;;;;;;12065468;28;20049;-61
2021/08/16 19:24:36;;;;;;;33.63;19.15;;;22.60;70.10;;;;;;12066415;28;20051;-60
2021/08/16 19:30:23;;;;;;;34.85;19.13;;;22.40;69.30;;;;;;12065648;28;20462;-62
2021/08/16 19:36:10;;;;;;;32.20;20.30;;;22.40;70.00;;;;;;12066801;28;20078;-62
2021/08/16 19:41:59;;;;;;;36.60;21.08;;;22.20;70.00;;;;;;12065670;28;20401;-61
2021/08/16 19:47:46;;;;;;;37.35;20.73;;;22.00;70.70;;;;;;12066694;28;20045;-62
2021/08/16 19:53:41;;;;;;;36.28;20.67;;;22.00;71.00;;;;;;12043103;28;20048;-62
2021/08/16 19:59:29;;;;;;;40.75;21.38;;;22.00;71.30;;;;;;12025337;28;20094;-61
2021/08/16 20:05:16;;;;;;;37.05;21.20;;;21.90;71.50;;;;;;12018675;28;20111;-61
2021/08/16 20:11:03;;;;;;;35.70;21.05;;;21.90;71.50;;;;;;12019818;28;20371;-61
2021/08/16 20:16:52;;;;;;;37.17;21.50;;;21.80;71.60;;;;;;12020432;28;20539;-61
2021/08/16 20:22:39;;;;;;;35.13;21.38;;;21.80;72.00;;;;;;12019852;28;21345;-61
2021/08/16 20:28:26;;;;;;;38.42;21.88;;;21.70;72.00;;;;;;12024513;28;20500;-61
2021/08/16 20:34:14;;;;;;;39.28;22.85;;;21.60;72.40;;;;;;12021034;28;20048;-61
2021/08/16 20:40:01;;;;;;;42.60;22.52;;;21.70;72.60;;;;;;12019192;28;20044;-61
2021/08/16 20:45:48;;;;;;;39.13;22.42;;;21.50;73.00;;;;;;12024962;28;20052;-61
2021/08/16 20:51:37;;;;;;;42.53;23.08;;;21.30;73.70;;;;;;12047774;28;20049;-61
2021/08/16 20:57:24;;;;;;;43.38;23.17;;;21.20;74.20;;;;;;12021891;28;20060;-62
2021/08/16 21:03:57;;;;;;;39.67;22.48;;;21.30;74.60;;;;;;12054220;28;20037;-61
2021/08/16 21:09:45;;;;;;;43.20;24.05;;;21.30;74.30;;;;;;12073081;28;20044;-61
2021/08/16 21:15:32;;;;;;;43.13;22.40;;;21.30;74.50;;;;;;12072365;28;20059;-61
2021/08/16 21:21:19;;;;;;;39.30;21.88;;;21.30;75.00;;;;;;12072340;28;20500;-61
2021/08/16 21:27:09;;;;;;;43.53;24.05;;;21.30;75.10;;;;;;12072180;28;20048;-61
2021/08/16 21:32:56;;;;;;;43.65;23.60;;;21.30;75.30;;;;;;12072109;28;20076;-61
2021/08/16 21:38:43;;;;;;;41.40;24.13;;;21.30;75.30;;;;;;12072151;28;20043;-61
2021/08/16 21:44:32;;;;;;;46.67;24.63;;;21.30;75.50;;;;;;12071000;28;20140;-61
2021/08/16 21:50:18;;;;;;;43.28;23.50;;;21.40;75.70;;;;;;12071417;28;20036;-62
2021/08/16 21:56:06;;;;;;;44.30;23.83;;;21.30;75.90;;;;;;12016720;28;20059;-62
2021/08/16 22:01:54;;;;;;;41.63;23.50;;;21.20;76.50;;;;;;12024616;28;20106;-61
2021/08/16 22:07:49;;;;;;;43.80;22.88;;;21.10;77.10;;;;;;12023972;28;20696;-62
2021/08/16 22:13:37;;;;;;;44.78;23.85;;;21.10;77.00;;;;;;12021137;28;20040;-60
2021/08/16 22:19:25;;;;;;;41.30;23.05;;;21.20;77.30;;;;;;12026673;28;20056;-62
2021/08/16 22:25:12;;;;;;;40.58;22.15;;;21.30;77.00;;;;;;12028401;28;20059;-62
2021/08/16 22:30:59;;;;;;;41.97;22.33;;;21.30;77.20;;;;;;12028825;28;20087;-62
2021/08/16 22:36:47;;;;;;;39.22;22.23;;;21.30;77.20;;;;;;12067412;28;20432;-61
2021/08/16 22:42:35;;;;;;;40.72;22.20;;;21.20;77.60;;;;;;12064763;28;20423;-61
2021/08/16 22:48:22;;;;;;;45.35;22.95;;;21.10;78.10;;;;;;12066630;28;20094;-61
2021/08/16 22:54:11;;;;;;;46.80;22.75;;;21.00;78.60;;;;;;12064899;28;20140;-62
2021/08/16 22:59:58;;;;;;;50.30;22.58;;;20.80;79.00;;;;;;12064408;28;20397;-61
2021/08/16 23:05:44;;;;;;;43.30;22.38;;;20.80;79.60;;;;;;12063898;28;20052;-62
2021/08/16 23:11:33;;;;;;;43.22;21.17;;;20.80;79.40;;;;;;12064898;28;20610;-61
2021/08/16 23:17:20;;;;;;;47.08;22.35;;;20.80;79.40;;;;;;12064756;28;20044;-62
2021/08/16 23:23:07;;;;;;;42.63;21.40;;;20.70;79.90;;;;;;12061218;28;20045;-62
2021/08/16 23:28:55;;;;;;;40.35;21.08;;;20.60;80.10;;;;;;12061455;28;20147;-62
2021/08/16 23:34:42;;;;;;;38.28;20.38;;;20.60;80.60;;;;;;12062988;28;20048;-61
2021/08/16 23:40:29;;;;;;;38.53;20.63;;;20.60;81.20;;;;;;12060885;28;20040;-61
2021/08/16 23:46:17;;;;;;;40.80;19.88;;;20.70;80.50;;;;;;12062520;28;20052;-62
2021/08/16 23:52:05;;;;;;;36.70;20.15;;;20.80;80.50;;;;;;12049275;28;20080;-62
2021/08/16 23:57:51;;;;;;;44.13;20.65;;;20.80;80.90;;;;;;12022261;28;20048;-62
